Time;durP1;ratioP1;P1;durP2;ratioP2;P2;SDS_P1;SDS_P2;PMS_P1;PMS_P2;Temp;Humidity;BMP_temperature;BMP_pressure;BME280_temperature;BME280_humidity;BME280_pressure;Samples;Min_cycle;Max_cycle;Signal;HPM_P1;HPM_P2
2022/11/30 00:01:14;;;;;;;31.77;19.30;;;;;;;3.94;100.00;96500.56;4857522;29;20049;-85
2022/11/30 00:03:40;;;;;;;33.50;19.73;;;;;;;3.91;100.00;96503.38;4868386;29;20519;-85
2022/11/30 00:06:09;;;;;;;32.27;19.97;;;;;;;3.88;100.00;96498.41;4857329;29;20038;-85
2022/11/30 00:08:35;;;;;;;32.30;20.80;;;;;;;3.94;100.00;96507.53;4836213;29;20042;-85
2022/11/30 00:11:08;;;;;;;37.17;20.50;;;;;;;3.84;100.00;96502.16;4844999;29;20411;-85
2022/11/30 00:13:37;;;;;;;24.33;14.52;;;;;;;3.88;100.00;96507.97;4851061;29;20029;-85
2022/11/30 00:16:04;;;;;;;32.83;19.77;;;;;;;3.86;100.00;96502.06;4857499;29;20060;-85
2022/11/30 00:18:30;;;;;;;34.80;21.10;;;;;;;3.86;100.00;96502.91;4853808;29;20046;-85
2022/11/30 00:21:04;;;;;;;35.23;21.40;;;;;;;3.88;100.00;96494.97;4870447;29;20046;-84
2022/11/30 00:23:35;;;;;;;47.70;30.00;;;;;;;3.86;100.00;96495.09;4860630;29;20034;-85
2022/11/30 00:26:10;;;;;;;46.37;28.37;;;;;;;3.86;100.00;96489.88;4849156;29;20073;-85
2022/11/30 00:28:37;;;;;;;35.03;23.20;;;;;;;3.86;100.00;96489.88;4838033;29;20037;-85
2022/11/30 00:31:06;;;;;;;34.87;20.60;;;;;;;3.90;100.00;96498.31;4865096;29;20033;-85
2022/11/30 00:33:33;;;;;;;33.33;20.10;;;;;;;3.87;100.00;96496.75;4842203;29;20040;-85
2022/11/30 00:36:01;;;;;;;34.30;21.37;;;;;;;3.88;100.00;96494.97;4864150;29;20048;-85
2022/11/30 00:38:27;;;;;;;33.27;20.27;;;;;;;3.86;100.00;96492.50;4834350;29;20040;-85
2022/11/30 00:40:53;;;;;;;30.13;19.43;;;;;;;3.96;100.00;96495.25;4848206;29;20041;-85
2022/11/30 00:43:19;;;;;;;31.17;19.07;;;;;;;3.96;100.00;96498.69;4865048;29;20034;-85
2022/11/30 00:45:45;;;;;;;34.37;20.57;;;;;;;3.95;100.00;96496.19;4840351;29;20151;-85
2022/11/30 00:48:10;;;;;;;35.60;20.67;;;;;;;3.90;100.00;96503.50;4848080;29;20129;-85
2022/11/30 00:50:36;;;;;;;31.37;19.93;;;;;;;3.89;100.00;96496.63;4863305;29;20035;-85
2022/11/30 00:53:02;;;;;;;33.70;20.93;;;;;;;3.85;100.00;96500.38;4864261;29;20037;-85
2022/11/30 00:55:30;;;;;;;31.53;21.33;;;;;;;3.81;100.00;96501.56;4869759;29;20034;-85
2022/11/30 00:57:56;;;;;;;35.17;20.47;;;;;;;3.83;100.00;96505.72;4855756;29;20438;-85
2022/11/30 01:00:22;;;;;;;34.83;21.70;;;;;;;3.87;100.00;96501.94;4850410;29;20097;-85
2022/11/30 01:02:58;;;;;;;30.50;19.53;;;;;;;3.80;100.00;96497.31;4831572;29;20570;-85
2022/11/30 01:05:24;;;;;;;33.53;20.43;;;;;;;3.78;100.00;96500.00;4847158;29;20450;-85
2022/11/30 01:07:50;;;;;;;34.00;20.20;;;;;;;3.77;100.00;96504.38;4864489;29;20065;-85
2022/11/30 01:10:16;;;;;;;33.10;20.97;;;;;;;3.76;100.00;96505.34;4850032;29;20049;-85
2022/11/30 01:12:42;;;;;;;32.53;20.00;;;;;;;3.76;100.00;96507.94;4846476;29;20034;-85
2022/11/30 01:15:08;;;;;;;35.03;20.73;;;;;;;3.72;100.00;96509.09;4866138;29;20037;-85
2022/11/30 01:17:34;;;;;;;32.40;20.07;;;;;;;3.73;100.00;96510.75;4842793;29;20518;-85
2022/11/30 01:20:00;;;;;;;35.20;20.83;;;;;;;3.68;100.00;96512.00;4860808;29;20132;-84
2022/11/30 01:22:25;;;;;;;35.37;20.63;;;;;;;3.73;100.00;96513.34;4866868;29;20042;-85
2022/11/30 01:24:51;;;;;;;35.37;21.43;;;;;;;3.66;100.00;96514.72;4863338;29;20045;-85
2022/11/30 01:27:17;;;;;;;33.23;20.20;;;;;;;3.62;100.00;96517.66;4844384;29;20489;-85
2022/11/30 01:29:42;;;;;;;37.53;22.03;;;;;;;3.63;100.00;96511.53;4859776;29;20073;-84
2022/11/30 01:32:08;;;;;;;34.83;21.27;;;;;;;3.65;100.00;96518.25;4872529;29;20048;-85
2022/11/30 01:34:34;;;;;;;34.13;20.10;;;;;;;3.67;100.00;96521.59;4856117;29;20061;-85
2022/11/30 01:36:59;;;;;;;37.60;21.77;;;;;;;3.72;100.00;96524.69;4851237;29;20038;-84
2022/11/30 01:39:25;;;;;;;38.80;23.03;;;;;;;3.69;100.00;96526.66;4858336;29;20030;-85
2022/11/30 01:41:53;;;;;;;36.97;22.03;;;;;;;3.67;100.00;96526.78;4830412;29;20060;-85
2022/11/30 01:44:25;;;;;;;37.03;21.73;;;;;;;3.61;100.00;96536.81;4864460;29;20070;-85
2022/11/30 01:47:04;;;;;;;36.57;21.77;;;;;;;3.59;100.00;96536.06;4841497;29;20038;-85
2022/11/30 01:49:45;;;;;;;37.83;21.10;;;;;;;3.64;100.00;96533.97;4848511;29;20430;-85
2022/11/30 01:52:24;;;;;;;35.00;21.13;;;;;;;3.57;100.00;96527.56;4840607;29;20124;-85
2022/11/30 01:55:01;;;;;;;39.13;22.97;;;;;;;3.52;100.00;96530.47;4854839;29;20038;-84
2022/11/30 01:57:33;;;;;;;37.03;21.10;;;;;;;3.54;100.00;96528.59;4865774;29;20034;-85
2022/11/30 02:00:01;;;;;;;39.60;22.67;;;;;;;3.54;100.00;96536.41;4853278;29;20046;-84
2022/11/30 02:02:43;;;;;;;36.87;21.43;;;;;;;3.46;100.00;96536.13;4837468;29;20475;-84
2022/11/30 02:05:14;;;;;;;37.77;21.83;;;;;;;3.47;100.00;96525.59;4840606;29;20037;-85
2022/11/30 02:07:41;;;;;;;35.73;21.97;;;;;;;3.50;100.00;96532.38;4854484;29;20115;-84
2022/11/30 02:10:14;;;;;;;35.07;21.10;;;;;;;3.39;100.00;96534.91;4824915;29;20041;-85
2022/11/30 02:13:08;;;;;;;40.30;23.17;;;;;;;3.31;100.00;96536.25;4856635;29;20034;-86
2022/11/30 02:15:52;;;;;;;36.77;22.23;;;;;;;3.29;100.00;96537.31;4838027;29;20508;-85
2022/11/30 02:18:41;;;;;;;35.58;20.73;;;;;;;3.25;100.00;96536.69;4852657;29;20038;-85
2022/11/30 02:21:25;;;;;;;35.57;20.90;;;;;;;3.28;100.00;96540.81;4821782;29;20057;-85
2022/11/30 02:24:09;;;;;;;35.90;20.33;;;;;;;3.28;100.00;96548.63;4848302;29;20121;-85
2022/11/30 02:27:10;;;;;;;35.63;20.87;;;;;;;3.23;100.00;96546.34;4840883;29;20041;-85
2022/11/30 02:29:48;;;;;;;37.83;21.87;;;;;;;3.16;100.00;96539.91;4861004;29;20156;-85
2022/11/30 02:32:22;;;;;;;35.60;20.63;;;;;;;3.15;100.00;96547.81;4840023;29;20050;-85
2022/11/30 02:34:49;;;;;;;38.17;21.97;;;;;;;3.16;100.00;96546.88;4835227;29;20044;-84
2022/11/30 02:37:16;;;;;;;36.70;21.57;;;;;;;3.08;100.00;96547.41;4855535;29;20045;-84
2022/11/30 02:39:45;;;;;;;43.23;24.10;;;;;;;3.14;100.00;96536.59;4836839;29;20503;-84
2022/11/30 02:42:13;;;;;;;35.00;21.53;;;;;;;3.05;100.00;96543.25;4848615;29;20030;-85
2022/11/30 02:44:42;;;;;;;40.97;23.77;;;;;;;3.02;100.00;96538.28;4853536;29;20058;-85
2022/11/30 02:47:40;;;;;;;38.57;22.27;;;;;;;2.97;100.00;96540.34;4853512;29;20527;-84
2022/11/30 02:50:27;;;;;;;39.27;23.13;;;;;;;2.99;100.00;96529.88;4855077;29;20053;-84
2022/11/30 02:52:53;;;;;;;37.77;22.13;;;;;;;2.98;100.00;96533.38;4861142;29;20081;-84
2022/11/30 02:55:19;;;;;;;38.43;22.80;;;;;;;2.95;100.00;96539.63;4857026;29;20694;-84
2022/11/30 02:57:45;;;;;;;37.43;22.27;;;;;;;2.95;100.00;96533.59;4854874;29;20038;-85
2022/11/30 03:00:12;;;;;;;36.10;22.93;;;;;;;2.89;100.00;96540.06;4869021;29;20152;-84
2022/11/30 03:02:38;;;;;;;37.67;22.67;;;;;;;2.91;100.00;96539.94;4857279;29;20079;-84
2022/11/30 03:05:07;;;;;;;38.50;22.43;;;;;;;2.87;100.00;96543.69;4857393;29;20037;-85
2022/11/30 03:07:33;;;;;;;39.50;22.73;;;;;;;2.85;100.00;96543.78;4824557;29;20512;-85
2022/11/30 03:09:59;;;;;;;36.90;22.90;;;;;;;2.82;100.00;96544.00;4852323;29;20042;-84
2022/11/30 03:12:25;;;;;;;35.33;21.53;;;;;;;2.83;100.00;96553.44;4840654;29;20034;-85
2022/11/30 03:14:51;;;;;;;35.87;21.83;;;;;;;2.81;100.00;96552.72;4870487;29;20022;-85
2022/11/30 03:17:18;;;;;;;35.30;20.83;;;;;;;2.80;100.00;96551.06;4854905;29;20034;-84
2022/11/30 03:19:43;;;;;;;33.83;20.60;;;;;;;2.79;100.00;96554.59;4851002;29;20059;-84
2022/11/30 03:22:09;;;;;;;37.00;21.23;;;;;;;2.76;100.00;96553.03;4857706;29;20079;-84
2022/11/30 03:24:35;;;;;;;36.73;21.07;;;;;;;2.78;100.00;96555.50;4833088;29;20128;-84
2022/11/30 03:27:02;;;;;;;38.63;22.53;;;;;;;2.80;100.00;96553.66;4860430;29;20107;-84
2022/11/30 03:29:27;;;;;;;35.70;21.57;;;;;;;2.81;100.00;96550.94;4857000;29;20044;-85
2022/11/30 03:31:53;;;;;;;36.57;23.07;;;;;;;2.77;100.00;96546.88;4859478;29;20280;-85
2022/11/30 03:34:21;;;;;;;40.93;23.47;;;;;;;2.71;100.00;96555.09;4841201;29;20030;-84
2022/11/30 03:36:47;;;;;;;35.17;22.37;;;;;;;2.70;100.00;96547.41;4856780;29;20652;-84
2022/11/30 03:39:12;;;;;;;37.70;22.93;;;;;;;2.64;100.00;96550.41;4857869;29;20033;-85
2022/11/30 03:41:42;;;;;;;35.47;21.40;;;;;;;2.73;100.00;96549.81;4827757;29;20047;-84
2022/11/30 03:44:09;;;;;;;37.03;21.57;;;;;;;2.63;100.00;96552.19;4845868;29;20564;-84
2022/11/30 03:46:35;;;;;;;38.07;23.20;;;;;;;2.73;100.00;96550.63;4844758;29;20089;-84
2022/11/30 03:49:06;;;;;;;33.93;20.27;;;;;;;2.75;100.00;96553.13;4845763;29;20501;-85
2022/11/30 03:51:32;;;;;;;34.13;22.43;;;;;;;2.77;100.00;96541.69;4855747;29;20181;-85
2022/11/30 03:53:58;;;;;;;38.07;21.67;;;;;;;2.78;100.00;96547.72;4854008;29;20071;-84
2022/11/30 03:56:24;;;;;;;37.70;22.00;;;;;;;2.73;100.00;96544.63;4853843;29;20544;-84
2022/11/30 03:58:50;;;;;;;37.50;22.53;;;;;;;2.69;100.00;96548.34;4856741;29;20480;-85
2022/11/30 04:01:26;;;;;;;39.23;23.00;;;;;;;2.76;100.00;96542.63;4860482;29;20085;-85
2022/11/30 04:03:53;;;;;;;37.83;23.17;;;;;;;2.79;100.00;96549.41;4837086;29;20042;-84
2022/11/30 04:06:20;;;;;;;35.83;20.90;;;;;;;2.84;100.00;96547.31;4838659;29;20104;-85
2022/11/30 04:08:46;;;;;;;36.37;21.17;;;;;;;2.77;100.00;96546.06;4839149;29;20066;-85
2022/11/30 04:11:22;;;;;;;35.63;20.67;;;;;;;2.79;100.00;96549.41;4849412;29;20102;-84
2022/11/30 04:13:47;;;;;;;36.97;21.10;;;;;;;2.74;100.00;96546.25;4849242;29;20116;-84
2022/11/30 04:16:18;;;;;;;37.10;22.63;;;;;;;2.74;100.00;96547.09;4851824;29;20497;-84
2022/11/30 04:18:43;;;;;;;35.50;22.33;;;;;;;2.73;100.00;96544.63;4813290;29;20043;-84
2022/11/30 04:21:09;;;;;;;38.00;21.80;;;;;;;2.70;100.00;96547.41;4863211;29;20037;-84
2022/11/30 04:23:37;;;;;;;37.93;21.67;;;;;;;2.63;100.00;96546.16;4862175;29;20045;-84
2022/11/30 04:26:05;;;;;;;39.33;23.47;;;;;;;2.59;100.00;96553.34;4845115;29;20060;-84
2022/11/30 04:28:34;;;;;;;39.70;23.47;;;;;;;2.63;100.00;96551.38;4854282;29;20042;-84
2022/11/30 04:31:01;;;;;;;36.97;21.83;;;;;;;2.67;100.00;96552.81;4849490;29;20041;-84
2022/11/30 04:33:51;;;;;;;35.37;23.03;;;;;;;2.70;100.00;96555.19;4853170;29;20041;-84
2022/11/30 04:36:19;;;;;;;35.43;22.60;;;;;;;2.74;100.00;96557.47;4836354;29;20038;-84
2022/11/30 04:38:48;;;;;;;39.17;22.47;;;;;;;2.70;100.00;96556.03;4835058;29;20045;-83
2022/11/30 04:41:14;;;;;;;37.83;23.07;;;;;;;2.65;100.00;96557.25;4824490;29;20038;-84
2022/11/30 04:43:41;;;;;;;37.03;22.30;;;;;;;2.64;100.00;96555.59;4857353;29;20390;-84
2022/11/30 04:46:07;;;;;;;37.70;22.17;;;;;;;2.70;100.00;96563.00;4856043;29;20080;-84
2022/11/30 04:48:33;;;;;;;39.20;21.70;;;;;;;2.59;100.00;96564.53;4849601;29;20264;-84
2022/11/30 04:51:04;;;;;;;37.90;23.13;;;;;;;2.60;100.00;96560.19;4840893;29;20038;-84
2022/11/30 04:53:31;;;;;;;37.20;22.33;;;;;;;2.59;100.00;96559.34;4841812;29;20043;-85
2022/11/30 04:55:58;;;;;;;37.97;23.43;;;;;;;2.68;100.00;96562.25;4842182;29;20035;-85
2022/11/30 04:58:24;;;;;;;36.67;21.87;;;;;;;2.62;100.00;96570.47;4851165;29;20116;-85
2022/11/30 05:00:53;;;;;;;38.47;23.07;;;;;;;2.61;100.00;96572.22;4837478;29;20070;-85
2022/11/30 05:03:18;;;;;;;36.00;22.50;;;;;;;2.67;100.00;96568.38;4857501;29;20046;-84
2022/11/30 05:05:45;;;;;;;34.17;20.67;;;;;;;2.71;100.00;96567.25;4855116;29;20103;-84
2022/11/30 05:08:11;;;;;;;39.27;22.63;;;;;;;2.77;100.00;96577.22;4839705;29;20042;-85
2022/11/30 05:10:37;;;;;;;37.50;23.07;;;;;;;2.79;100.00;96573.59;4858413;29;20030;-85
2022/11/30 05:13:03;;;;;;;40.50;21.67;;;;;;;2.84;100.00;96575.88;4841448;29;20496;-85
2022/11/30 05:15:32;;;;;;;35.97;22.23;;;;;;;2.89;100.00;96576.41;4853488;29;20038;-84
2022/11/30 05:17:59;;;;;;;35.23;21.77;;;;;;;3.12;100.00;96574.00;4848277;29;20456;-84
2022/11/30 05:20:33;;;;;;;37.67;21.30;;;;;;;3.15;100.00;96571.19;4855789;29;20038;-84
2022/11/30 05:23:03;;;;;;;37.57;21.23;;;;;;;3.11;100.00;96569.75;4836129;29;20041;-84
2022/11/30 05:25:29;;;;;;;37.23;22.50;;;;;;;3.17;100.00;96569.34;4842670;29;20041;-84
2022/11/30 05:27:55;;;;;;;40.30;23.90;;;;;;;3.07;100.00;96569.94;4856781;29;20125;-84
2022/11/30 05:30:23;;;;;;;37.90;23.53;;;;;;;2.97;100.00;96576.72;4862725;29;20026;-84
2022/11/30 05:32:51;;;;;;;39.83;22.10;;;;;;;2.91;100.00;96577.13;4837287;29;20062;-84
2022/11/30 05:35:33;;;;;;;38.90;21.80;;;;;;;3.11;100.00;96590.53;4852796;29;20038;-86
2022/11/30 05:38:02;;;;;;;40.73;24.57;;;;;;;3.00;100.00;96578.28;4831368;29;20038;-88
2022/11/30 05:40:32;;;;;;;40.70;24.10;;;;;;;3.02;100.00;96595.44;4875282;29;20103;-88
2022/11/30 05:43:00;;;;;;;42.67;26.67;;;;;;;3.06;100.00;96580.47;4833896;29;20037;-89
2022/11/30 05:45:29;;;;;;;40.90;24.63;;;;;;;2.98;100.00;96596.56;4858397;29;20033;-88
2022/11/30 05:47:55;;;;;;;43.03;24.97;;;;;;;2.86;100.00;96588.78;4856972;29;20034;-89
2022/11/30 05:50:21;;;;;;;43.93;26.17;;;;;;;2.86;100.00;96583.59;4861569;29;20114;-89
2022/11/30 05:52:55;;;;;;;37.37;22.50;;;;;;;2.82;100.00;96586.38;4833445;29;20037;-89
2022/11/30 05:55:27;;;;;;;37.20;22.53;;;;;;;2.70;100.00;96586.38;4859776;29;20132;-89
2022/11/30 05:57:53;;;;;;;45.07;26.77;;;;;;;2.72;100.00;96584.50;4828406;29;20407;-89
2022/11/30 06:00:34;;;;;;;41.43;24.43;;;;;;;2.75;100.00;96592.06;4850018;29;20125;-90
2022/11/30 06:03:00;;;;;;;43.90;25.40;;;;;;;2.74;100.00;96578.25;4826553;29;20052;-89
2022/11/30 06:05:26;;;;;;;38.07;22.50;;;;;;;2.75;100.00;96592.06;4857800;29;20033;-89
2022/11/30 06:07:52;;;;;;;39.60;23.97;;;;;;;2.70;100.00;96588.97;4857214;29;20070;-89
2022/11/30 06:10:18;;;;;;;41.93;24.80;;;;;;;2.63;100.00;96590.31;4840950;29;20079;-89
2022/11/30 06:12:44;;;;;;;43.00;25.37;;;;;;;2.60;100.00;96586.97;4866902;29;20044;-88
2022/11/30 06:15:11;;;;;;;49.97;27.97;;;;;;;2.58;100.00;96580.22;4855814;29;20038;-87
2022/11/30 06:17:37;;;;;;;46.47;25.80;;;;;;;2.57;100.00;96581.97;4857485;29;20126;-89
2022/11/30 06:20:06;;;;;;;45.17;26.77;;;;;;;2.51;100.00;96584.97;4848605;29;20065;-89
2022/11/30 06:22:32;;;;;;;47.57;26.30;;;;;;;2.58;100.00;96593.19;4862421;29;20109;-89
2022/11/30 06:24:58;;;;;;;52.53;28.83;;;;;;;2.56;100.00;96590.72;4871109;29;20504;-89
2022/11/30 06:27:23;;;;;;;44.47;25.47;;;;;;;2.60;100.00;96586.16;4829266;29;20046;-89
2022/11/30 06:29:50;;;;;;;48.47;26.37;;;;;;;2.64;100.00;96589.38;4858993;29;20033;-89
2022/11/30 06:32:16;;;;;;;45.77;26.27;;;;;;;2.63;100.00;96583.34;4860744;29;20072;-89
2022/11/30 06:34:45;;;;;;;46.43;25.27;;;;;;;2.56;100.00;96590.72;4837526;29;20077;-89
2022/11/30 06:37:11;;;;;;;49.87;28.00;;;;;;;2.46;100.00;96599.22;4836600;29;20131;-89
2022/11/30 06:39:47;;;;;;;48.27;25.90;;;;;;;2.51;100.00;96587.56;4837408;29;20041;-89
2022/11/30 06:42:13;;;;;;;49.00;27.57;;;;;;;2.55;100.00;96586.47;4848044;29;20050;-88
2022/11/30 06:44:40;;;;;;;45.03;26.97;;;;;;;2.59;100.00;96585.31;4848108;29;20049;-89
2022/11/30 06:47:06;;;;;;;45.40;25.33;;;;;;;2.64;100.00;96582.41;4828386;29;20045;-88
2022/11/30 06:49:32;;;;;;;44.57;26.43;;;;;;;2.65;100.00;96580.63;4862138;29;20552;-89
2022/11/30 06:51:57;;;;;;;44.13;24.77;;;;;;;2.64;100.00;96586.78;4844424;29;20042;-89
2022/11/30 06:54:23;;;;;;;45.13;24.33;;;;;;;2.64;100.00;96587.59;4862880;29;20082;-89
2022/11/30 06:56:49;;;;;;;39.97;23.07;;;;;;;2.65;100.00;96578.03;4842285;29;20041;-88
2022/11/30 06:59:14;;;;;;;38.20;20.97;;;;;;;2.71;100.00;96590.63;4840997;29;20054;-89
2022/11/30 07:01:43;;;;;;;45.13;25.63;;;;;;;2.72;100.00;96592.31;4839510;29;20045;-91
2022/11/30 07:04:09;;;;;;;42.80;23.20;;;;;;;2.71;100.00;96593.22;4836550;29;20079;-90
2022/11/30 07:06:45;;;;;;;49.17;25.60;;;;;;;2.67;100.00;96591.75;4833261;29;20049;-90
2022/11/30 07:09:12;;;;;;;40.10;21.03;;;;;;;2.72;100.00;96595.72;4839718;29;20041;-90
2022/11/30 07:11:38;;;;;;;38.97;22.27;;;;;;;2.79;100.00;96596.97;4852055;29;20025;-90
2022/11/30 07:14:03;;;;;;;38.13;22.67;;;;;;;2.78;100.00;96605.72;4852723;29;20057;-90
2022/11/30 07:16:29;;;;;;;41.33;22.77;;;;;;;2.83;100.00;96597.59;4850542;29;20049;-90
2022/11/30 07:18:57;;;;;;;41.90;24.13;;;;;;;2.89;100.00;96599.78;4837518;29;20049;-90
2022/11/30 07:21:23;;;;;;;49.27;28.97;;;;;;;2.97;100.00;96594.91;4849455;29;20034;-90
2022/11/30 07:26:42;;;;;;;33.70;18.60;;;;;;;2.99;100.00;96594.81;4848638;29;20041;-90
2022/11/30 07:29:09;;;;;;;40.87;24.50;;;;;;;2.97;100.00;96600.09;4846057;29;20457;-90
2022/11/30 07:31:35;;;;;;;40.17;23.10;;;;;;;3.01;100.00;96601.53;4826910;29;20061;-90
2022/11/30 07:34:07;;;;;;;43.27;24.53;;;;;;;2.93;100.00;96603.00;4842589;29;20071;-90
2022/11/30 07:36:34;;;;;;;42.00;23.00;;;;;;;3.06;100.00;96604.69;4857610;29;20105;-91
2022/11/30 07:39:00;;;;;;;44.90;23.90;;;;;;;3.12;100.00;96605.19;4837401;29;20045;-91
2022/11/30 07:41:26;;;;;;;40.17;22.87;;;;;;;3.13;100.00;96601.66;4841149;29;20034;-90
2022/11/30 07:43:53;;;;;;;43.20;24.10;;;;;;;3.01;100.00;96611.94;4866177;29;20046;-90
2022/11/30 07:46:19;;;;;;;48.77;28.90;;;;;;;3.10;100.00;96612.28;4855087;29;20049;-90
2022/11/30 07:48:45;;;;;;;46.87;28.40;;;;;;;3.15;100.00;96608.41;4869248;29;20053;-90
2022/11/30 07:51:17;;;;;;;42.97;24.53;;;;;;;3.22;100.00;96609.66;4859386;29;20069;-90
2022/11/30 07:53:43;;;;;;;40.63;23.83;;;;;;;3.15;100.00;96618.78;4852787;29;20033;-90
2022/11/30 07:56:24;;;;;;;35.67;23.10;;;;;;;3.15;100.00;96612.78;4825710;29;20041;-90
2022/11/30 07:58:53;;;;;;;39.47;22.43;;;;;;;3.24;100.00;96612.16;4850323;29;20508;-90
2022/11/30 08:01:21;;;;;;;39.67;22.90;;;;;;;3.22;100.00;96621.81;4867176;29;20078;-90
2022/11/30 08:03:48;;;;;;;36.33;22.83;;;;;;;3.25;100.00;96619.00;4833755;29;20128;-90
2022/11/30 08:06:18;;;;;;;36.70;21.83;;;;;;;3.30;100.00;96632.53;4852516;29;20405;-90
2022/11/30 08:08:44;;;;;;;38.63;22.63;;;;;;;3.34;100.00;96626.19;4839903;29;20109;-91
2022/11/30 08:11:14;;;;;;;39.03;23.47;;;;;;;3.36;100.00;96629.53;4835129;29;20789;-91
2022/11/30 08:13:40;;;;;;;34.20;21.27;;;;;;;3.42;100.00;96633.44;4859353;29;20106;-91
2022/11/30 08:16:08;;;;;;;39.80;23.30;;;;;;;3.42;100.00;96631.69;4827121;29;20034;-91
2022/11/30 08:18:34;;;;;;;34.00;20.57;;;;;;;3.45;100.00;96630.63;4862694;29;20037;-91
2022/11/30 08:21:03;;;;;;;33.27;20.30;;;;;;;3.46;100.00;96627.94;4858523;29;20068;-90
2022/11/30 08:23:29;;;;;;;36.57;21.77;;;;;;;3.55;100.00;96629.06;4842756;29;20049;-91
2022/11/30 08:25:55;;;;;;;40.70;23.10;;;;;;;3.57;100.00;96626.38;4880567;29;20029;-90
2022/11/30 08:28:21;;;;;;;36.73;21.20;;;;;;;3.61;100.00;96638.22;4844366;29;20159;-91
2022/11/30 08:30:47;;;;;;;35.03;21.60;;;;;;;3.59;100.00;96627.09;4846803;29;20046;-91
2022/11/30 08:33:13;;;;;;;38.57;22.07;;;;;;;3.74;100.00;96631.22;4865076;29;20477;-91
2022/11/30 08:35:40;;;;;;;39.27;20.93;;;;;;;3.71;100.00;96637.47;4854050;29;20493;-91
2022/11/30 08:38:06;;;;;;;38.70;22.30;;;;;;;3.70;100.00;96632.38;4864201;29;20042;-91
2022/11/30 08:40:38;;;;;;;35.97;21.70;;;;;;;3.70;100.00;96630.63;4829305;29;20042;-91
2022/11/30 08:43:04;;;;;;;37.23;22.23;;;;;;;3.58;100.00;96631.44;4857387;29;20049;-91
2022/11/30 08:45:31;;;;;;;36.90;21.73;;;;;;;3.66;100.00;96642.19;4862359;29;20137;-91
2022/11/30 08:47:56;;;;;;;32.67;18.43;;;;;;;4.07;100.00;96642.81;4834056;29;20042;-84
2022/11/30 08:50:23;;;;;;;38.00;22.07;;;;;;;4.52;100.00;96641.25;4861227;29;20124;-84
2022/11/30 08:52:49;;;;;;;35.33;21.17;;;;;;;4.31;100.00;96643.66;4876735;29;20124;-90
2022/11/30 08:55:14;;;;;;;36.97;21.77;;;;;;;4.20;100.00;96644.41;4872507;29;20506;-90
2022/11/30 08:57:41;;;;;;;37.17;21.03;;;;;;;4.24;100.00;96642.44;4835400;29;20046;-90
2022/11/30 09:00:07;;;;;;;37.77;20.97;;;;;;;4.17;100.00;96636.00;4853928;29;20020;-89
2022/11/30 09:02:36;;;;;;;38.40;23.70;;;;;;;4.13;100.00;96638.00;4872190;29;20052;-90
2022/11/30 09:05:02;;;;;;;35.93;21.57;;;;;;;4.17;100.00;96638.59;4849815;29;20166;-90
2022/11/30 09:07:28;;;;;;;34.97;21.53;;;;;;;4.20;100.00;96654.00;4861614;29;20500;-90
2022/11/30 09:09:54;;;;;;;37.37;22.77;;;;;;;4.24;100.00;96655.44;4851718;29;20773;-90
2022/11/30 09:12:19;;;;;;;38.73;22.93;;;;;;;4.30;100.00;96651.59;4860426;29;20360;-90
2022/11/30 09:14:47;;;;;;;49.30;23.37;;;;;;;4.13;100.00;96655.38;4857115;29;20046;-90
2022/11/30 09:17:12;;;;;;;40.40;20.70;;;;;;;4.19;100.00;96652.31;4860319;29;20581;-90
2022/11/30 09:19:39;;;;;;;39.47;22.37;;;;;;;4.13;100.00;96653.63;4854583;29;20136;-90
2022/11/30 09:22:04;;;;;;;38.80;24.07;;;;;;;4.14;100.00;96657.03;4862331;29;20365;-90
2022/11/30 09:24:30;;;;;;;40.10;21.67;;;;;;;4.22;100.00;96657.31;4875543;29;20449;-90
2022/11/30 09:26:56;;;;;;;44.93;22.33;;;;;;;4.24;100.00;96652.84;4874167;29;20029;-90
2022/11/30 09:29:22;;;;;;;36.73;21.53;;;;;;;4.22;100.00;96639.91;4849278;29;20075;-89
2022/11/30 09:31:48;;;;;;;54.37;31.30;;;;;;;4.17;100.00;96644.63;4832728;29;20038;-93
2022/11/30 09:34:14;;;;;;;38.43;23.00;;;;;;;4.25;100.00;96651.88;4854134;29;20043;-90
2022/11/30 09:36:40;;;;;;;39.07;21.80;;;;;;;4.36;100.00;96651.13;4837160;29;20069;-91
2022/11/30 09:39:09;;;;;;;36.10;20.87;;;;;;;4.27;100.00;96644.81;4854960;29;20033;-90
2022/11/30 09:41:37;;;;;;;34.67;20.53;;;;;;;4.30;100.00;96642.00;4871294;29;20037;-90
2022/11/30 09:44:20;;;;;;;38.57;21.07;;;;;;;4.22;100.00;96637.31;4845538;29;20042;-91
2022/11/30 09:47:03;;;;;;;48.73;23.30;;;;;;;4.17;100.00;96636.81;4830644;29;20034;-90
2022/11/30 09:49:34;;;;;;;43.38;20.75;;;;;;;4.05;100.00;96636.88;4857625;29;20129;-90
2022/11/30 09:52:03;;;;;;;39.80;22.47;;;;;;;4.13;100.00;96640.59;4859158;29;20394;-90
2022/11/30 09:54:37;;;;;;;46.53;23.20;;;;;;;4.12;100.00;96644.13;4867366;29;20121;-90
2022/11/30 09:57:30;;;;;;;35.47;21.70;;;;;;;4.23;100.00;96648.59;4869992;29;20037;-90
2022/11/30 10:00:04;;;;;;;28.52;16.35;;;;;;;4.10;100.00;96648.63;4862906;29;20038;-90
2022/11/30 10:02:38;;;;;;;35.20;20.80;;;;;;;4.23;100.00;96649.41;4845699;29;20144;-90
2022/11/30 10:05:19;;;;;;;36.17;20.27;;;;;;;4.17;100.00;96655.06;4865248;29;20093;-90
2022/11/30 10:07:54;;;;;;;34.57;19.07;;;;;;;4.17;100.00;96652.44;4837364;29;20034;-89
2022/11/30 10:10:43;;;;;;;41.10;22.57;;;;;;;4.56;100.00;96647.94;4877550;29;20030;-91
2022/11/30 10:13:45;;;;;;;54.13;30.90;;;;;;;4.37;100.00;96643.22;4843058;29;20124;-90
2022/11/30 10:16:31;;;;;;;35.03;19.70;;;;;;;4.28;100.00;96650.84;4858427;29;20136;-90
2022/11/30 10:19:27;;;;;;;32.40;17.97;;;;;;;4.15;100.00;96645.69;4860712;29;20128;-90
2022/11/30 10:22:20;;;;;;;35.50;17.83;;;;;;;4.16;100.00;96650.78;4847826;29;20052;-90
2022/11/30 10:25:28;;;;;;;32.20;17.10;;;;;;;4.03;100.00;96641.38;4853285;29;20050;-90
2022/11/30 10:28:03;;;;;;;28.87;15.80;;;;;;;3.99;100.00;96646.78;4839509;29;20037;-91
2022/11/30 10:30:35;;;;;;;30.77;16.77;;;;;;;3.97;100.00;96645.22;4856139;29;20060;-90
2022/11/30 10:33:26;;;;;;;28.42;14.10;;;;;;;4.06;100.00;96651.53;4853983;29;20078;-90
2022/11/30 10:36:03;;;;;;;35.90;16.83;;;;;;;4.10;100.00;96648.63;4831728;29;20042;-90
2022/11/30 10:38:51;;;;;;;38.07;18.50;;;;;;;3.87;100.00;96647.63;4867158;29;20044;-90
2022/11/30 10:41:35;;;;;;;36.20;17.57;;;;;;;3.93;100.00;96651.59;4853953;29;20078;-90
2022/11/30 10:44:11;;;;;;;37.53;17.88;;;;;;;3.95;100.00;96644.50;4841959;29;20042;-90
2022/11/30 10:46:42;;;;;;;39.47;17.60;;;;;;;3.84;100.00;96640.06;4836100;29;20097;-90
2022/11/30 10:49:15;;;;;;;39.20;18.33;;;;;;;3.87;100.00;96642.44;4869687;29;20045;-90
2022/11/30 10:51:48;;;;;;;47.22;18.40;;;;;;;3.97;100.00;96637.41;4831837;29;20040;-90
2022/11/30 10:54:20;;;;;;;39.00;18.13;;;;;;;3.74;100.00;96637.25;4844438;29;20090;-90
2022/11/30 10:56:46;;;;;;;40.43;19.00;;;;;;;3.94;100.00;96638.47;4848869;29;20041;-90
2022/11/30 10:59:45;;;;;;;36.80;18.93;;;;;;;3.91;100.00;96637.84;4836665;29;20259;-90
2022/11/30 11:02:33;;;;;;;43.37;19.63;;;;;;;4.11;100.00;96636.44;4826575;29;20517;-90
2022/11/30 11:05:22;;;;;;;40.17;19.43;;;;;;;4.04;100.00;96640.41;4868047;29;20359;-90
2022/11/30 11:07:53;;;;;;;51.27;20.47;;;;;;;4.00;100.00;96638.03;4861769;29;20094;-91
2022/11/30 11:10:45;;;;;;;37.43;17.43;;;;;;;3.94;100.00;96630.66;4865070;29;20049;-89
2022/11/30 11:13:16;;;;;;;39.33;17.80;;;;;;;4.06;100.00;96633.31;4833447;29;20042;-90
2022/11/30 11:15:59;;;;;;;36.47;17.53;;;;;;;4.05;100.00;96629.06;4865513;29;20048;-90
2022/11/30 11:18:30;;;;;;;42.38;19.30;;;;;;;4.08;100.00;96627.06;4864089;29;20094;-91
2022/11/30 11:21:15;;;;;;;39.33;19.47;;;;;;;4.17;100.00;96628.19;4855636;29;20049;-89
2022/11/30 11:23:42;;;;;;;40.40;20.67;;;;;;;4.17;100.00;96630.78;4846557;29;20046;-90
2022/11/30 11:26:23;;;;;;;38.53;18.40;;;;;;;4.20;100.00;96622.78;4834600;29;20038;-90
2022/11/30 11:28:52;;;;;;;38.83;18.63;;;;;;;4.18;100.00;96619.44;4852538;29;20060;-91
2022/11/30 11:31:47;;;;;;;33.97;16.67;;;;;;;4.27;100.00;96617.94;4863735;29;20046;-90
2022/11/30 11:34:25;;;;;;;34.50;16.63;;;;;;;4.19;100.00;96619.34;4863308;29;20384;-90